AFL2602 UUBW-UUOO
Flight info
| Callsign | AFL2602 |
|---|---|
| Flight time | 1h 7m |
| Altitude | 15000 |
| Route | UUBW LINRU EKTUT UROBI RONUM UUOO |
| Aircraft | AN24/M-SG/L |
Departure
| Time | 2026-04-28 15:10 |
|---|---|
| Airport | Zhukovsky International Airport (UUBW) |
Arrival
| Time | 2026-04-28 16:17 |
|---|---|
| Airport | Voronezh International Airport (UUOO) |
| Time | Latitude | Longitude | Altitude | Speed | Heading |
|---|---|---|---|---|---|
| 2026-04-28 14:41 | 55.56023 | 38.12473 | 385 ft | 0 kts | 132° |
| 2026-04-28 14:53 | 55.56031 | 38.12458 | 385 ft | 2 kts | 132° |
| 2026-04-28 14:53 | 55.56041 | 38.12438 | 385 ft | 2 kts | 132° |
| 2026-04-28 14:53 | 55.56051 | 38.12418 | 385 ft | 2 kts | 132° |
| 2026-04-28 14:54 | 55.56059 | 38.12403 | 385 ft | 0 kts | 132° |
| 2026-04-28 14:54 | 55.56066 | 38.12385 | 385 ft | 2 kts | 116° |
| 2026-04-28 14:54 | 55.56070 | 38.12360 | 385 ft | 2 kts | 96° |
| 2026-04-28 14:54 | 55.56070 | 38.12334 | 385 ft | 2 kts | 76° |
| 2026-04-28 14:55 | 55.56063 | 38.12310 | 385 ft | 2 kts | 56° |
| 2026-04-28 14:55 | 55.56056 | 38.12293 | 385 ft | 1 kts | 41° |
| 2026-04-28 14:55 | 55.56055 | 38.12293 | 385 ft | 0 kts | 41° |
| 2026-04-28 14:58 | 55.56075 | 38.12324 | 385 ft | 5 kts | 41° |
| 2026-04-28 14:58 | 55.56113 | 38.12383 | 385 ft | 8 kts | 41° |
| 2026-04-28 14:58 | 55.56153 | 38.12445 | 385 ft | 6 kts | 41° |
| 2026-04-28 14:59 | 55.56182 | 38.12527 | 385 ft | 6 kts | 88° |
| 2026-04-28 14:59 | 55.56159 | 38.12612 | 385 ft | 7 kts | 133° |
| 2026-04-28 14:59 | 55.56117 | 38.12697 | 385 ft | 6 kts | 126° |
| 2026-04-28 14:59 | 55.56088 | 38.12794 | 385 ft | 10 kts | 114° |
| 2026-04-28 15:00 | 55.56041 | 38.12910 | 385 ft | 13 kts | 131° |
| 2026-04-28 15:00 | 55.55984 | 38.13024 | 385 ft | 11 kts | 131° |
| 2026-04-28 15:00 | 55.55924 | 38.13143 | 385 ft | 13 kts | 131° |
| 2026-04-28 15:00 | 55.55867 | 38.13254 | 385 ft | 10 kts | 131° |
| 2026-04-28 15:01 | 55.55812 | 38.13364 | 385 ft | 13 kts | 132° |
| 2026-04-28 15:01 | 55.55752 | 38.13483 | 385 ft | 9 kts | 131° |
| 2026-04-28 15:01 | 55.55697 | 38.13594 | 385 ft | 12 kts | 132° |
| 2026-04-28 15:01 | 55.55634 | 38.13718 | 385 ft | 15 kts | 132° |
| 2026-04-28 15:02 | 55.55576 | 38.13832 | 385 ft | 9 kts | 131° |
| 2026-04-28 15:02 | 55.55511 | 38.13962 | 385 ft | 15 kts | 131° |
| 2026-04-28 15:02 | 55.55439 | 38.14107 | 385 ft | 15 kts | 131° |
| 2026-04-28 15:02 | 55.55372 | 38.14239 | 385 ft | 14 kts | 131° |
| 2026-04-28 15:03 | 55.55308 | 38.14366 | 385 ft | 15 kts | 131° |
| 2026-04-28 15:03 | 55.55248 | 38.14484 | 385 ft | 10 kts | 132° |
| 2026-04-28 15:03 | 55.55182 | 38.14614 | 385 ft | 12 kts | 131° |
| 2026-04-28 15:03 | 55.55119 | 38.14740 | 385 ft | 15 kts | 131° |
| 2026-04-28 15:04 | 55.55052 | 38.14874 | 385 ft | 14 kts | 131° |
| 2026-04-28 15:04 | 55.55002 | 38.14973 | 385 ft | 9 kts | 132° |
| 2026-04-28 15:04 | 55.54964 | 38.15051 | 385 ft | 13 kts | 130° |
| 2026-04-28 15:04 | 55.54905 | 38.15250 | 385 ft | 15 kts | 68° |
| 2026-04-28 15:05 | 55.54950 | 38.15342 | 385 ft | 0 kts | 40° |
| 2026-04-28 15:05 | 55.54951 | 38.15344 | 385 ft | 0 kts | 40° |
| 2026-04-28 15:05 | 55.54953 | 38.15346 | 385 ft | 0 kts | 40° |
| 2026-04-28 15:05 | 55.54954 | 38.15348 | 385 ft | 0 kts | 40° |
| 2026-04-28 15:06 | 55.54955 | 38.15350 | 385 ft | 0 kts | 40° |
| 2026-04-28 15:06 | 55.54956 | 38.15351 | 385 ft | 0 kts | 40° |
| 2026-04-28 15:06 | 55.54967 | 38.15367 | 385 ft | 5 kts | 41° |
| 2026-04-28 15:06 | 55.54985 | 38.15395 | 385 ft | 0 kts | 40° |
| 2026-04-28 15:07 | 55.54998 | 38.15415 | 385 ft | 1 kts | 40° |
| 2026-04-28 15:07 | 55.55004 | 38.15423 | 385 ft | 1 kts | 35° |
| 2026-04-28 15:07 | 55.55032 | 38.15438 | 385 ft | 4 kts | 359° |
| 2026-04-28 15:07 | 55.55064 | 38.15415 | 385 ft | 4 kts | 319° |
| 2026-04-28 15:08 | 55.55071 | 38.15402 | 385 ft | 0 kts | 310° |
| 2026-04-28 15:08 | 55.55092 | 38.15360 | 385 ft | 23 kts | 312° |
| 2026-04-28 15:09 | 55.55372 | 38.14802 | 385 ft | 95 kts | 310° |
| 2026-04-28 15:09 | 55.55925 | 38.13726 | 452 ft | 132 kts | 310° |
| 2026-04-28 15:09 | 55.56611 | 38.12571 | 761 ft | 141 kts | 314° |
| 2026-04-28 15:09 | 55.57100 | 38.11797 | 940 ft | 146 kts | 315° |
| 2026-04-28 15:10 | 55.58184 | 38.10173 | 1236 ft | 161 kts | 316° |
| 2026-04-28 15:10 | 55.59069 | 38.08801 | 1427 ft | 172 kts | 311° |
| 2026-04-28 15:10 | 55.59684 | 38.06971 | 1641 ft | 178 kts | 285° |
| 2026-04-28 15:10 | 55.59718 | 38.04802 | 1919 ft | 182 kts | 258° |
| 2026-04-28 15:11 | 55.59110 | 38.02816 | 2221 ft | 187 kts | 230° |
| 2026-04-28 15:11 | 55.58023 | 38.01508 | 2522 ft | 194 kts | 206° |
| 2026-04-28 15:11 | 55.56671 | 38.00998 | 2712 ft | 207 kts | 184° |
| 2026-04-28 15:11 | 55.55246 | 38.01513 | 2963 ft | 216 kts | 159° |
| 2026-04-28 15:12 | 55.54042 | 38.03182 | 3165 ft | 225 kts | 133° |
| 2026-04-28 15:12 | 55.53018 | 38.05265 | 3501 ft | 224 kts | 134° |
| 2026-04-28 15:12 | 55.51962 | 38.07301 | 3837 ft | 222 kts | 134° |
| 2026-04-28 15:12 | 55.50906 | 38.09329 | 4154 ft | 222 kts | 134° |
| 2026-04-28 15:13 | 55.49876 | 38.11357 | 4464 ft | 223 kts | 128° |
| 2026-04-28 15:13 | 55.49165 | 38.13777 | 4797 ft | 223 kts | 107° |
| 2026-04-28 15:13 | 55.48979 | 38.16511 | 5031 ft | 226 kts | 82° |
| 2026-04-28 15:13 | 55.49484 | 38.19110 | 5249 ft | 226 kts | 54° |
| 2026-04-28 15:14 | 55.50598 | 38.20932 | 5434 ft | 222 kts | 22° |
| 2026-04-28 15:14 | 55.52082 | 38.21390 | 5620 ft | 217 kts | 351° |
| 2026-04-28 15:14 | 55.53522 | 38.20722 | 5897 ft | 213 kts | 338° |
| 2026-04-28 15:14 | 55.54941 | 38.19861 | 6138 ft | 216 kts | 339° |
| 2026-04-28 15:15 | 55.56359 | 38.19011 | 6375 ft | 217 kts | 337° |
| 2026-04-28 15:15 | 55.57763 | 38.18002 | 6644 ft | 217 kts | 335° |
| 2026-04-28 15:15 | 55.59161 | 38.16991 | 6887 ft | 218 kts | 335° |
| 2026-04-28 15:15 | 55.60450 | 38.15637 | 7106 ft | 216 kts | 312° |
| 2026-04-28 15:16 | 55.61101 | 38.13267 | 7317 ft | 217 kts | 282° |
| 2026-04-28 15:16 | 55.61215 | 38.10627 | 7614 ft | 216 kts | 269° |
| 2026-04-28 15:16 | 55.60970 | 38.08022 | 7903 ft | 216 kts | 257° |
| 2026-04-28 15:16 | 55.60580 | 38.05450 | 8144 ft | 217 kts | 258° |
| 2026-04-28 15:17 | 55.60074 | 38.02901 | 8387 ft | 220 kts | 244° |
| 2026-04-28 15:17 | 55.59138 | 38.00774 | 8670 ft | 222 kts | 229° |
| 2026-04-28 15:17 | 55.57974 | 37.98926 | 8936 ft | 225 kts | 220° |
| 2026-04-28 15:17 | 55.56659 | 37.97432 | 9203 ft | 226 kts | 214° |
| 2026-04-28 15:18 | 55.55310 | 37.96014 | 9424 ft | 228 kts | 214° |
| 2026-04-28 15:18 | 55.53901 | 37.94625 | 9657 ft | 231 kts | 207° |
| 2026-04-28 15:18 | 55.52358 | 37.93797 | 9933 ft | 234 kts | 191° |
| 2026-04-28 15:18 | 55.50732 | 37.93805 | 10211 ft | 236 kts | 178° |
| 2026-04-28 15:19 | 55.49090 | 37.94043 | 10431 ft | 238 kts | 178° |
| 2026-04-28 15:19 | 55.47442 | 37.94260 | 10644 ft | 240 kts | 178° |
| 2026-04-28 15:19 | 55.45747 | 37.94503 | 10869 ft | 242 kts | 178° |
| 2026-04-28 15:19 | 55.44055 | 37.94759 | 11095 ft | 243 kts | 177° |
| 2026-04-28 15:20 | 55.42316 | 37.95024 | 11324 ft | 244 kts | 178° |
| 2026-04-28 15:20 | 55.40568 | 37.95281 | 11556 ft | 245 kts | 178° |
| 2026-04-28 15:20 | 55.38870 | 37.95522 | 11782 ft | 246 kts | 178° |
| 2026-04-28 15:20 | 55.37177 | 37.95764 | 12010 ft | 246 kts | 177° |
| 2026-04-28 15:21 | 55.35901 | 37.95949 | 12180 ft | 246 kts | 178° |
| 2026-04-28 15:21 | 55.34165 | 37.96199 | 12411 ft | 246 kts | 178° |
| 2026-04-28 15:21 | 55.32460 | 37.96448 | 12635 ft | 247 kts | 177° |
| 2026-04-28 15:21 | 55.30757 | 37.96697 | 12857 ft | 247 kts | 178° |
| 2026-04-28 15:22 | 55.29034 | 37.96948 | 13080 ft | 247 kts | 178° |
| 2026-04-28 15:22 | 55.27327 | 37.97197 | 13299 ft | 247 kts | 178° |
| 2026-04-28 15:22 | 55.25630 | 37.97459 | 13520 ft | 246 kts | 177° |
| 2026-04-28 15:22 | 55.23932 | 37.97752 | 13737 ft | 246 kts | 176° |
| 2026-04-28 15:23 | 55.22214 | 37.98058 | 13949 ft | 246 kts | 176° |
| 2026-04-28 15:23 | 55.20524 | 37.98360 | 14157 ft | 246 kts | 176° |
| 2026-04-28 15:23 | 55.18834 | 37.98697 | 14374 ft | 246 kts | 174° |
| 2026-04-28 15:23 | 55.17122 | 37.99125 | 14523 ft | 249 kts | 173° |
| 2026-04-28 15:24 | 55.15418 | 37.99623 | 14637 ft | 252 kts | 172° |
| 2026-04-28 15:24 | 55.13667 | 38.00181 | 14756 ft | 255 kts | 172° |
| 2026-04-28 15:24 | 55.11919 | 38.00749 | 14835 ft | 260 kts | 171° |
| 2026-04-28 15:24 | 55.10117 | 38.01334 | 14824 ft | 266 kts | 171° |
| 2026-04-28 15:25 | 55.08302 | 38.01902 | 14887 ft | 268 kts | 172° |
| 2026-04-28 15:25 | 55.06428 | 38.02457 | 14838 ft | 274 kts | 172° |
| 2026-04-28 15:25 | 55.04557 | 38.02999 | 14817 ft | 278 kts | 172° |
| 2026-04-28 15:25 | 55.02654 | 38.03550 | 14844 ft | 279 kts | 172° |
| 2026-04-28 15:26 | 55.01156 | 38.04005 | 14857 ft | 280 kts | 172° |
| 2026-04-28 15:26 | 54.99239 | 38.04609 | 14841 ft | 283 kts | 171° |
| 2026-04-28 15:26 | 54.97309 | 38.05222 | 14850 ft | 284 kts | 171° |
| 2026-04-28 15:26 | 54.95356 | 38.05843 | 14840 ft | 286 kts | 171° |
| 2026-04-28 15:27 | 54.93399 | 38.06462 | 14850 ft | 287 kts | 171° |
| 2026-04-28 15:27 | 54.91422 | 38.07083 | 14838 ft | 288 kts | 171° |
| 2026-04-28 15:27 | 54.89460 | 38.07700 | 14845 ft | 289 kts | 171° |
| 2026-04-28 15:27 | 54.87450 | 38.08328 | 14760 ft | 292 kts | 172° |
| 2026-04-28 15:28 | 54.85477 | 38.08937 | 14876 ft | 288 kts | 172° |
| 2026-04-28 15:28 | 54.83503 | 38.09546 | 14868 ft | 289 kts | 172° |
| 2026-04-28 15:28 | 54.81516 | 38.10157 | 14805 ft | 292 kts | 172° |
| 2026-04-28 15:28 | 54.79527 | 38.10768 | 14863 ft | 290 kts | 172° |
| 2026-04-28 15:29 | 54.77551 | 38.11377 | 14872 ft | 290 kts | 172° |
| 2026-04-28 15:29 | 54.75376 | 38.12045 | 14800 ft | 293 kts | 172° |
| 2026-04-28 15:29 | 54.73346 | 38.12669 | 14870 ft | 290 kts | 172° |
| 2026-04-28 15:29 | 54.71371 | 38.13276 | 14864 ft | 291 kts | 172° |
| 2026-04-28 15:30 | 54.69371 | 38.13890 | 14796 ft | 293 kts | 172° |
| 2026-04-28 15:30 | 54.67361 | 38.14507 | 14869 ft | 290 kts | 172° |
| 2026-04-28 15:30 | 54.65386 | 38.15113 | 14864 ft | 291 kts | 172° |
| 2026-04-28 15:30 | 54.63367 | 38.15732 | 14796 ft | 294 kts | 172° |
| 2026-04-28 15:31 | 54.61372 | 38.16343 | 14870 ft | 291 kts | 172° |
| 2026-04-28 15:31 | 54.59384 | 38.16952 | 14864 ft | 292 kts | 172° |
| 2026-04-28 15:31 | 54.57345 | 38.17576 | 14798 ft | 294 kts | 172° |
| 2026-04-28 15:31 | 54.55346 | 38.18187 | 14869 ft | 291 kts | 172° |
| 2026-04-28 15:32 | 54.53379 | 38.18788 | 14863 ft | 292 kts | 172° |
| 2026-04-28 15:32 | 54.52043 | 38.19195 | 14810 ft | 294 kts | 172° |
| 2026-04-28 15:32 | 54.49358 | 38.20012 | 14868 ft | 291 kts | 172° |
| 2026-04-28 15:32 | 54.47379 | 38.20614 | 14864 ft | 292 kts | 172° |
| 2026-04-28 15:33 | 54.45359 | 38.21227 | 14796 ft | 294 kts | 172° |
| 2026-04-28 15:33 | 54.43356 | 38.21834 | 14867 ft | 291 kts | 172° |
| 2026-04-28 15:33 | 54.41345 | 38.22422 | 14866 ft | 292 kts | 172° |
| 2026-04-28 15:33 | 54.39302 | 38.22988 | 14790 ft | 294 kts | 172° |
| 2026-04-28 15:34 | 54.37311 | 38.23529 | 14863 ft | 291 kts | 173° |
| 2026-04-28 15:34 | 54.35282 | 38.24126 | 14878 ft | 292 kts | 170° |
| 2026-04-28 15:34 | 54.33310 | 38.24903 | 14821 ft | 294 kts | 167° |
| 2026-04-28 15:34 | 54.31321 | 38.25767 | 14820 ft | 294 kts | 167° |
| 2026-04-28 15:35 | 54.29346 | 38.26647 | 14890 ft | 292 kts | 167° |
| 2026-04-28 15:35 | 54.25411 | 38.28414 | 14819 ft | 294 kts | 166° |
| 2026-04-28 15:35 | 54.23452 | 38.29281 | 14897 ft | 291 kts | 167° |
| 2026-04-28 15:36 | 54.21461 | 38.30126 | 14822 ft | 295 kts | 167° |
| 2026-04-28 15:36 | 54.19477 | 38.30953 | 14812 ft | 294 kts | 167° |
| 2026-04-28 15:36 | 54.17490 | 38.31778 | 14889 ft | 292 kts | 167° |
| 2026-04-28 15:36 | 54.15485 | 38.32608 | 14824 ft | 295 kts | 167° |
| 2026-04-28 15:37 | 54.13483 | 38.33437 | 14816 ft | 294 kts | 167° |
| 2026-04-28 15:37 | 54.11482 | 38.34264 | 14890 ft | 292 kts | 167° |
| 2026-04-28 15:37 | 54.09522 | 38.35073 | 14823 ft | 295 kts | 168° |
| 2026-04-28 15:37 | 54.08185 | 38.35624 | 14797 ft | 295 kts | 168° |
| 2026-04-28 15:38 | 54.05556 | 38.36706 | 14892 ft | 292 kts | 168° |
| 2026-04-28 15:38 | 54.03556 | 38.37527 | 14822 ft | 295 kts | 168° |
| 2026-04-28 15:38 | 54.01586 | 38.38335 | 14818 ft | 294 kts | 167° |
| 2026-04-28 15:38 | 54.00920 | 38.38609 | 14850 ft | 293 kts | 167° |
| 2026-04-28 15:39 | 53.97610 | 38.39976 | 14821 ft | 295 kts | 167° |
| 2026-04-28 15:39 | 53.96941 | 38.40252 | 14801 ft | 296 kts | 167° |
| 2026-04-28 15:39 | 53.93662 | 38.41640 | 14905 ft | 292 kts | 167° |
| 2026-04-28 15:39 | 53.91692 | 38.42504 | 14830 ft | 295 kts | 167° |
| 2026-04-28 15:40 | 53.90368 | 38.43088 | 14809 ft | 296 kts | 166° |
| 2026-04-28 15:41 | 53.81795 | 38.46807 | 14859 ft | 295 kts | 167° |
| 2026-04-28 15:41 | 53.79706 | 38.47707 | 14956 ft | 291 kts | 167° |
| 2026-04-28 15:41 | 53.77654 | 38.48591 | 14929 ft | 293 kts | 167° |
| 2026-04-28 15:41 | 53.75570 | 38.49486 | 14888 ft | 294 kts | 167° |
| 2026-04-28 15:42 | 53.73569 | 38.50360 | 14978 ft | 291 kts | 166° |
| 2026-04-28 15:42 | 53.71554 | 38.51342 | 14934 ft | 294 kts | 164° |
| 2026-04-28 15:42 | 53.69562 | 38.52365 | 14882 ft | 296 kts | 163° |
| 2026-04-28 15:42 | 53.67608 | 38.53416 | 14967 ft | 293 kts | 163° |
| 2026-04-28 15:43 | 53.65676 | 38.54471 | 14929 ft | 295 kts | 163° |
| 2026-04-28 15:43 | 53.63683 | 38.55551 | 14889 ft | 297 kts | 163° |
| 2026-04-28 15:43 | 53.61697 | 38.56591 | 14974 ft | 293 kts | 163° |
| 2026-04-28 15:43 | 53.59736 | 38.57605 | 14924 ft | 296 kts | 164° |
| 2026-04-28 15:44 | 53.57700 | 38.58653 | 14897 ft | 297 kts | 164° |
| 2026-04-28 15:44 | 53.55602 | 38.59729 | 14982 ft | 293 kts | 164° |
| 2026-04-28 15:44 | 53.53466 | 38.60825 | 14906 ft | 297 kts | 164° |
| 2026-04-28 15:44 | 53.51300 | 38.61938 | 14921 ft | 295 kts | 164° |
| 2026-04-28 15:45 | 53.49184 | 38.63026 | 14975 ft | 293 kts | 163° |
| 2026-04-28 15:45 | 53.47041 | 38.64127 | 14887 ft | 297 kts | 164° |
| 2026-04-28 15:45 | 53.44918 | 38.65216 | 14949 ft | 294 kts | 165° |
| 2026-04-28 15:45 | 53.42831 | 38.66305 | 14942 ft | 294 kts | 164° |
| 2026-04-28 15:46 | 53.40687 | 38.67437 | 14887 ft | 296 kts | 164° |
| 2026-04-28 15:46 | 53.38571 | 38.68555 | 14973 ft | 293 kts | 164° |
| 2026-04-28 15:46 | 53.36456 | 38.69671 | 14915 ft | 295 kts | 164° |
| 2026-04-28 15:46 | 53.34375 | 38.70768 | 14907 ft | 295 kts | 164° |
| 2026-04-28 15:47 | 53.32278 | 38.71871 | 14982 ft | 293 kts | 164° |
| 2026-04-28 15:47 | 53.30151 | 38.72990 | 14898 ft | 296 kts | 164° |
| 2026-04-28 15:47 | 53.28017 | 38.74109 | 14934 ft | 294 kts | 164° |
| 2026-04-28 15:47 | 53.26029 | 38.75152 | 14977 ft | 293 kts | 164° |
| 2026-04-28 15:48 | 53.24043 | 38.76192 | 14888 ft | 297 kts | 164° |
| 2026-04-28 15:48 | 53.22051 | 38.77233 | 14937 ft | 295 kts | 164° |
| 2026-04-28 15:48 | 53.19999 | 38.78307 | 14965 ft | 294 kts | 164° |
| 2026-04-28 15:48 | 53.18013 | 38.79349 | 14885 ft | 297 kts | 164° |
| 2026-04-28 15:49 | 53.15881 | 38.80468 | 14955 ft | 294 kts | 164° |
| 2026-04-28 15:49 | 53.13804 | 38.81556 | 14951 ft | 295 kts | 164° |
| 2026-04-28 15:49 | 53.11664 | 38.82672 | 14888 ft | 297 kts | 164° |
| 2026-04-28 15:49 | 53.09615 | 38.83739 | 14971 ft | 293 kts | 164° |
| 2026-04-28 15:50 | 53.07639 | 38.84758 | 14942 ft | 295 kts | 164° |
| 2026-04-28 15:50 | 53.05531 | 38.85793 | 14899 ft | 296 kts | 165° |
| 2026-04-28 15:50 | 53.03404 | 38.86801 | 14921 ft | 295 kts | 165° |
| 2026-04-28 15:50 | 53.01381 | 38.87743 | 14934 ft | 294 kts | 165° |
| 2026-04-28 15:51 | 52.99352 | 38.88673 | 14927 ft | 294 kts | 165° |
| 2026-04-28 15:51 | 52.97278 | 38.89609 | 14938 ft | 294 kts | 165° |
| 2026-04-28 15:51 | 52.95241 | 38.90525 | 14924 ft | 294 kts | 164° |
| 2026-04-28 15:51 | 52.93206 | 38.91502 | 14944 ft | 293 kts | 163° |
| 2026-04-28 15:52 | 52.91172 | 38.92511 | 14918 ft | 294 kts | 163° |
| 2026-04-28 15:52 | 52.89195 | 38.93499 | 14920 ft | 294 kts | 163° |
| 2026-04-28 15:52 | 52.87188 | 38.94490 | 14881 ft | 295 kts | 163° |
| 2026-04-28 15:52 | 52.85189 | 38.95469 | 14962 ft | 292 kts | 163° |
| 2026-04-28 15:53 | 52.83242 | 38.96421 | 14930 ft | 294 kts | 163° |
| 2026-04-28 15:53 | 52.81209 | 38.97413 | 14889 ft | 295 kts | 163° |
| 2026-04-28 15:53 | 52.79205 | 38.98389 | 14974 ft | 292 kts | 163° |
| 2026-04-28 15:53 | 52.77184 | 38.99371 | 14918 ft | 295 kts | 163° |
| 2026-04-28 15:54 | 52.75140 | 39.00363 | 14899 ft | 295 kts | 163° |
| 2026-04-28 15:54 | 52.73161 | 39.01322 | 14963 ft | 285 kts | 163° |
| 2026-04-28 15:54 | 52.71283 | 39.02230 | 14919 ft | 281 kts | 163° |
| 2026-04-28 15:54 | 52.69412 | 39.03133 | 14884 ft | 275 kts | 163° |
| 2026-04-28 15:55 | 52.67603 | 39.04004 | 14927 ft | 268 kts | 163° |
| 2026-04-28 15:55 | 52.65797 | 39.04871 | 14789 ft | 269 kts | 163° |
| 2026-04-28 15:55 | 52.63925 | 39.05769 | 14570 ft | 273 kts | 163° |
| 2026-04-28 15:55 | 52.62004 | 39.06706 | 14366 ft | 275 kts | 162° |
| 2026-04-28 15:56 | 52.60102 | 39.07712 | 14182 ft | 276 kts | 161° |
| 2026-04-28 15:56 | 52.58276 | 39.08729 | 13989 ft | 271 kts | 160° |
| 2026-04-28 15:56 | 52.56500 | 39.09697 | 13787 ft | 265 kts | 161° |
| 2026-04-28 15:56 | 52.54749 | 39.10595 | 13579 ft | 261 kts | 162° |
| 2026-04-28 15:57 | 52.53027 | 39.11461 | 13357 ft | 258 kts | 162° |
| 2026-04-28 15:57 | 52.51297 | 39.12326 | 13127 ft | 256 kts | 162° |
| 2026-04-28 15:57 | 52.49603 | 39.13171 | 12899 ft | 254 kts | 162° |
| 2026-04-28 15:57 | 52.47841 | 39.13942 | 12689 ft | 251 kts | 168° |
| 2026-04-28 15:58 | 52.46070 | 39.14424 | 12492 ft | 248 kts | 171° |
| 2026-04-28 15:58 | 52.44307 | 39.14825 | 12258 ft | 248 kts | 172° |
| 2026-04-28 15:58 | 52.42601 | 39.15197 | 12031 ft | 247 kts | 172° |
| 2026-04-28 15:58 | 52.40884 | 39.15569 | 11806 ft | 247 kts | 172° |
| 2026-04-28 15:59 | 52.39175 | 39.15942 | 11584 ft | 246 kts | 172° |
| 2026-04-28 15:59 | 52.37473 | 39.16321 | 11366 ft | 245 kts | 172° |
| 2026-04-28 15:59 | 52.35777 | 39.16706 | 11152 ft | 244 kts | 172° |
| 2026-04-28 15:59 | 52.34092 | 39.17092 | 10933 ft | 242 kts | 172° |
| 2026-04-28 16:00 | 52.32398 | 39.17484 | 10711 ft | 241 kts | 172° |
| 2026-04-28 16:00 | 52.30700 | 39.17881 | 10487 ft | 239 kts | 172° |
| 2026-04-28 16:00 | 52.29045 | 39.18272 | 10267 ft | 238 kts | 172° |
| 2026-04-28 16:00 | 52.27384 | 39.18668 | 10046 ft | 236 kts | 172° |
| 2026-04-28 16:01 | 52.25722 | 39.19068 | 9824 ft | 235 kts | 172° |
| 2026-04-28 16:01 | 52.24095 | 39.19463 | 9608 ft | 232 kts | 173° |
| 2026-04-28 16:01 | 52.22456 | 39.19837 | 9389 ft | 230 kts | 173° |
| 2026-04-28 16:01 | 52.20841 | 39.20198 | 9166 ft | 229 kts | 173° |
| 2026-04-28 16:02 | 52.19238 | 39.20559 | 8945 ft | 227 kts | 173° |
| 2026-04-28 16:02 | 52.17619 | 39.20928 | 8720 ft | 226 kts | 173° |
| 2026-04-28 16:02 | 52.16000 | 39.21301 | 8495 ft | 225 kts | 173° |
| 2026-04-28 16:02 | 52.14403 | 39.21671 | 8272 ft | 224 kts | 173° |
| 2026-04-28 16:03 | 52.12807 | 39.22120 | 8057 ft | 223 kts | 166° |
| 2026-04-28 16:03 | 52.11304 | 39.22972 | 7888 ft | 220 kts | 159° |
| 2026-04-28 16:03 | 52.09842 | 39.23938 | 7676 ft | 219 kts | 158° |
| 2026-04-28 16:03 | 52.08388 | 39.24924 | 7456 ft | 219 kts | 158° |
| 2026-04-28 16:04 | 52.06932 | 39.25917 | 7238 ft | 218 kts | 158° |
| 2026-04-28 16:04 | 52.05505 | 39.26893 | 7027 ft | 217 kts | 158° |
| 2026-04-28 16:04 | 52.04035 | 39.27901 | 6812 ft | 217 kts | 158° |
| 2026-04-28 16:04 | 52.02629 | 39.28868 | 6607 ft | 216 kts | 158° |
| 2026-04-28 16:05 | 52.01242 | 39.29829 | 6405 ft | 215 kts | 158° |
| 2026-04-28 16:05 | 51.99848 | 39.30798 | 6203 ft | 214 kts | 158° |
| 2026-04-28 16:05 | 51.98482 | 39.31749 | 6006 ft | 213 kts | 158° |
| 2026-04-28 16:05 | 51.97111 | 39.32707 | 5806 ft | 211 kts | 158° |
| 2026-04-28 16:06 | 51.95795 | 39.33630 | 5597 ft | 206 kts | 158° |
| 2026-04-28 16:06 | 51.94487 | 39.34550 | 5379 ft | 203 kts | 158° |
| 2026-04-28 16:06 | 51.93198 | 39.35463 | 5153 ft | 200 kts | 158° |
| 2026-04-28 16:06 | 51.91936 | 39.36363 | 4924 ft | 198 kts | 158° |
| 2026-04-28 16:07 | 51.90696 | 39.37251 | 4694 ft | 196 kts | 158° |
| 2026-04-28 16:07 | 51.89451 | 39.38132 | 4450 ft | 195 kts | 159° |
| 2026-04-28 16:07 | 51.86976 | 39.39751 | 4033 ft | 188 kts | 160° |
| 2026-04-28 16:08 | 51.85772 | 39.40534 | 3841 ft | 184 kts | 160° |
| 2026-04-28 16:08 | 51.84645 | 39.41465 | 3646 ft | 183 kts | 143° |
| 2026-04-28 16:08 | 51.83722 | 39.42853 | 3479 ft | 179 kts | 135° |
| 2026-04-28 16:09 | 51.82036 | 39.45732 | 3179 ft | 176 kts | 134° |
| 2026-04-28 16:09 | 51.81190 | 39.47187 | 3105 ft | 177 kts | 134° |
| 2026-04-28 16:09 | 51.80342 | 39.48642 | 3025 ft | 176 kts | 135° |
| 2026-04-28 16:10 | 51.78691 | 39.51461 | 2906 ft | 170 kts | 135° |
| 2026-04-28 16:10 | 51.77750 | 39.52460 | 2906 ft | 157 kts | 170° |
| 2026-04-28 16:10 | 51.76076 | 39.51334 | 2973 ft | 123 kts | 237° |
| 2026-04-28 16:11 | 51.75031 | 39.49080 | 3031 ft | 132 kts | 234° |
| 2026-04-28 16:11 | 51.73822 | 39.46658 | 2983 ft | 141 kts | 235° |
| 2026-04-28 16:12 | 51.72671 | 39.44098 | 2830 ft | 140 kts | 238° |
| 2026-04-28 16:12 | 51.72129 | 39.42812 | 2747 ft | 138 kts | 250° |
| 2026-04-28 16:13 | 51.72547 | 39.40170 | 2825 ft | 122 kts | 308° |
| 2026-04-28 16:13 | 51.73098 | 39.39153 | 2894 ft | 123 kts | 308° |
| 2026-04-28 16:13 | 51.74247 | 39.36953 | 2712 ft | 126 kts | 304° |
| 2026-04-28 16:14 | 51.75284 | 39.34784 | 2480 ft | 118 kts | 305° |
| 2026-04-28 16:14 | 51.76297 | 39.32610 | 1968 ft | 124 kts | 304° |
| 2026-04-28 16:15 | 51.77342 | 39.30524 | 1613 ft | 110 kts | 307° |
| 2026-04-28 16:15 | 51.77848 | 39.29620 | 1463 ft | 107 kts | 310° |
| 2026-04-28 16:15 | 51.78361 | 39.28769 | 1301 ft | 106 kts | 309° |
| 2026-04-28 16:16 | 51.79334 | 39.26941 | 1041 ft | 111 kts | 306° |
| 2026-04-28 16:16 | 51.79835 | 39.25988 | 819 ft | 110 kts | 308° |
| 2026-04-28 16:17 | 51.80817 | 39.24263 | 577 ft | 100 kts | 307° |
| 2026-04-28 16:17 | 51.81253 | 39.23456 | 529 ft | 90 kts | 307° |
| 2026-04-28 16:17 | 51.81619 | 39.22758 | 525 ft | 67 kts | 308° |
| 2026-04-28 16:17 | 51.81854 | 39.22311 | 525 ft | 38 kts | 309° |
| 2026-04-28 16:18 | 51.81991 | 39.22056 | 525 ft | 22 kts | 309° |
| 2026-04-28 16:18 | 51.82053 | 39.21911 | 525 ft | 10 kts | 267° |
| 2026-04-28 16:18 | 51.82038 | 39.21862 | 525 ft | 0 kts | 221° |
| 2026-04-28 16:18 | 51.82018 | 39.21844 | 525 ft | 3 kts | 200° |
| 2026-04-28 16:19 | 51.81985 | 39.21830 | 525 ft | 2 kts | 189° |
| 2026-04-28 16:19 | 51.81981 | 39.21829 | 525 ft | 0 kts | 189° |
| 2026-04-28 16:19 | 51.81979 | 39.21829 | 525 ft | 0 kts | 189° |
| 2026-04-28 16:19 | 51.81970 | 39.21827 | 525 ft | 4 kts | 189° |
| 2026-04-28 16:20 | 51.81961 | 39.21824 | 525 ft | 0 kts | 189° |
| 2026-04-28 16:20 | 51.81956 | 39.21823 | 525 ft | 4 kts | 189° |
| 2026-04-28 16:20 | 51.81910 | 39.21810 | 525 ft | 4 kts | 189° |
| 2026-04-28 16:20 | 51.81864 | 39.21805 | 525 ft | 8 kts | 170° |
| 2026-04-28 16:21 | 51.81809 | 39.21873 | 525 ft | 13 kts | 130° |
| 2026-04-28 16:21 | 51.81743 | 39.21996 | 525 ft | 15 kts | 131° |
| 2026-04-28 16:21 | 51.81696 | 39.22089 | 525 ft | 7 kts | 129° |
| 2026-04-28 16:21 | 51.81655 | 39.22166 | 525 ft | 8 kts | 131° |
| 2026-04-28 16:22 | 51.81600 | 39.22266 | 525 ft | 10 kts | 131° |
| 2026-04-28 16:22 | 51.81559 | 39.22343 | 525 ft | 8 kts | 131° |
| 2026-04-28 16:22 | 51.81513 | 39.22427 | 525 ft | 8 kts | 131° |
| 2026-04-28 16:22 | 51.81478 | 39.22493 | 525 ft | 8 kts | 131° |
| 2026-04-28 16:23 | 51.81433 | 39.22575 | 525 ft | 8 kts | 131° |
| 2026-04-28 16:23 | 51.81402 | 39.22631 | 525 ft | 7 kts | 131° |
| 2026-04-28 16:23 | 51.81376 | 39.22679 | 525 ft | 2 kts | 131° |
| 2026-04-28 16:23 | 51.81362 | 39.22704 | 525 ft | 8 kts | 131° |
| 2026-04-28 16:24 | 51.81327 | 39.22769 | 525 ft | 5 kts | 131° |
| 2026-04-28 16:24 | 51.81300 | 39.22819 | 525 ft | 4 kts | 131° |
| 2026-04-28 16:24 | 51.81290 | 39.22831 | 525 ft | 3 kts | 158° |
| 2026-04-28 16:24 | 51.81278 | 39.22834 | 525 ft | 4 kts | 179° |
| 2026-04-28 16:25 | 51.81258 | 39.22822 | 525 ft | 1 kts | 218° |
| 2026-04-28 16:25 | 51.81221 | 39.22773 | 525 ft | 1 kts | 221° |
| 2026-04-28 16:26 | 51.81217 | 39.22768 | 525 ft | 0 kts | 221° |
| 2026-04-28 16:26 | 51.81215 | 39.22765 | 525 ft | 0 kts | 221° |